createdAt,value
2023-03-28T00:03:39.447Z,23.80
2023-03-28T00:08:45.821Z,24.80
2023-03-28T00:13:48.761Z,19.40
2023-03-28T00:18:51.563Z,19.20
2023-03-28T00:23:56.175Z,16.80
2023-03-28T00:28:58.927Z,18.40
2023-03-28T00:34:01.765Z,18.00
2023-03-28T00:39:06.908Z,18.20
2023-03-28T00:44:43.213Z,14.60
2023-03-28T00:49:46.657Z,14.40
2023-03-28T00:54:51.190Z,14.80
2023-03-28T00:59:53.962Z,14.60
2023-03-28T01:04:59.356Z,14.60
2023-03-28T01:10:05.096Z,16.00
2023-03-28T01:15:09.772Z,15.40
2023-03-28T01:20:35.913Z,11.20
2023-03-28T01:26:21.003Z,21.80
2023-03-28T01:31:33.871Z,13.00
2023-03-28T01:37:11.935Z,12.40
2023-03-28T01:42:24.613Z,12.80
2023-03-28T01:47:29.257Z,15.20
2023-03-28T01:52:36.116Z,11.80
2023-03-28T01:57:42.240Z,10.20
2023-03-28T02:02:49.345Z,10.20
2023-03-28T02:08:11.828Z,11.60
2023-03-28T02:13:19.742Z,11.80
2023-03-28T02:18:38.138Z,11.80
2023-03-28T02:24:02.714Z,13.20
2023-03-28T02:29:23.900Z,11.20
2023-03-28T02:34:56.120Z,9.80
2023-03-28T02:40:07.223Z,12.20
2023-03-28T02:45:35.542Z,11.00
2023-03-28T02:50:40.980Z,10.20
2023-03-28T02:55:47.273Z,11.40
2023-03-28T03:01:14.697Z,8.00
2023-03-28T03:06:19.334Z,9.20
2023-03-28T03:11:25.018Z,8.40
2023-03-28T03:16:29.157Z,10.60
2023-03-28T03:21:33.518Z,6.40
2023-03-28T03:26:37.701Z,7.60
2023-03-28T03:31:41.924Z,6.20
2023-03-28T03:37:17.943Z,8.00
2023-03-28T03:42:22.272Z,7.20
2023-03-28T03:47:25.205Z,9.00
2023-03-28T03:52:28.009Z,7.00
2023-03-28T03:57:32.367Z,9.40
2023-03-28T04:02:37.827Z,8.00
2023-03-28T04:07:42.192Z,7.60
2023-03-28T04:12:54.342Z,9.40
2023-03-28T04:17:57.277Z,7.00
2023-03-28T04:23:01.851Z,8.60
2023-03-28T04:28:09.277Z,7.40
2023-03-28T04:33:18.961Z,8.40
2023-03-28T04:38:23.677Z,7.20
2023-03-28T04:43:33.997Z,4.60
2023-03-28T04:48:36.992Z,8.40
2023-03-28T04:53:40.348Z,5.20
2023-03-28T04:59:04.446Z,6.20
2023-03-28T05:04:07.727Z,4.00
2023-03-28T05:09:12.312Z,8.20
2023-03-28T05:14:16.523Z,4.80
2023-03-28T05:19:25.239Z,8.00
2023-03-28T05:24:44.241Z,6.80
2023-03-28T05:29:53.647Z,5.80
2023-03-28T05:34:56.899Z,8.00
2023-03-28T05:40:06.377Z,6.80
2023-03-28T05:45:12.623Z,4.40
2023-03-28T05:50:35.697Z,5.00
2023-03-28T05:55:42.367Z,4.80
2023-03-28T06:00:46.614Z,4.00
2023-03-28T06:05:49.646Z,4.00
2023-03-28T06:11:03.008Z,4.80
2023-03-28T06:16:14.385Z,4.80
2023-03-28T06:21:17.516Z,5.00
2023-03-28T06:26:21.887Z,6.80
2023-03-28T06:31:26.159Z,5.00
2023-03-28T06:36:28.998Z,4.20
2023-03-28T06:41:32.215Z,2.00
2023-03-28T06:46:36.552Z,5.00
2023-03-28T06:51:40.310Z,4.00
2023-03-28T06:56:43.529Z,5.00
2023-03-28T07:01:47.873Z,3.80
2023-03-28T07:06:53.341Z,3.60
2023-03-28T07:11:56.447Z,2.00
2023-03-28T07:17:01.079Z,5.00
2023-03-28T07:22:04.139Z,5.20
2023-03-28T07:27:15.423Z,4.60
2023-03-28T07:32:22.298Z,4.20
2023-03-28T07:37:25.336Z,4.20
2023-03-28T07:42:46.042Z,5.60
2023-03-28T07:47:50.370Z,75.00
2023-03-28T07:52:57.580Z,110.25
2023-03-28T07:58:02.458Z,127.00
2023-03-28T08:03:09.644Z,184.50
2023-03-28T08:08:12.828Z,223.67
2023-03-28T08:13:15.997Z,312.25
2023-03-28T08:18:21.822Z,379.50
2023-03-28T08:23:26.391Z,328.75
2023-03-28T08:28:54.879Z,469.67
2023-03-28T08:33:59.374Z,481.33
2023-03-28T08:39:10.001Z,477.00
2023-03-28T08:44:26.053Z,492.33
2023-03-28T08:49:32.421Z,516.00
2023-03-28T08:54:37.103Z,548.33
2023-03-28T08:59:41.819Z,575.00
2023-03-28T09:04:46.050Z,550.33
2023-03-28T09:09:59.026Z,533.33
2023-03-28T09:15:34.315Z,492.00
2023-03-28T09:20:43.240Z,469.25
2023-03-28T09:26:09.481Z,470.33
2023-03-28T09:31:14.411Z,440.25
2023-03-28T09:36:20.213Z,426.25
2023-03-28T09:41:27.146Z,439.00
2023-03-28T09:46:48.645Z,404.75
2023-03-28T09:52:17.473Z,391.50
2023-03-28T09:57:20.714Z,397.75
2023-03-28T10:02:26.989Z,395.75
2023-03-28T10:07:34.775Z,395.50
2023-03-28T10:12:48.924Z,390.00
2023-03-28T10:17:51.972Z,370.00
2023-03-28T10:23:04.363Z,363.50
2023-03-28T10:28:14.116Z,351.00
2023-03-28T10:33:24.655Z,344.25
2023-03-28T10:38:48.429Z,312.25
2023-03-28T10:44:18.746Z,286.25
2023-03-28T10:49:31.960Z,295.50
2023-03-28T10:54:51.039Z,87.25
2023-03-28T11:00:10.682Z,63.50
2023-03-28T11:05:23.112Z,96.00
2023-03-28T11:10:31.932Z,85.00
2023-03-28T11:15:43.180Z,83.25
2023-03-28T11:21:02.175Z,92.00
2023-03-28T11:26:09.620Z,81.33
2023-03-28T11:31:46.678Z,81.00
2023-03-28T11:36:53.423Z,84.33
2023-03-28T11:41:59.565Z,86.33
2023-03-28T11:47:15.768Z,82.67
2023-03-28T11:52:22.436Z,76.33
2023-03-28T11:57:29.251Z,73.67
2023-03-28T12:02:42.171Z,78.67
2023-03-28T12:07:48.250Z,76.33
2023-03-28T12:13:06.883Z,75.33
2023-03-28T12:18:16.119Z,70.50
2023-03-28T12:23:22.329Z,65.25
2023-03-28T12:29:03.179Z,63.75
2023-03-28T12:34:09.301Z,76.00
2023-03-28T12:39:38.336Z,234.33
2023-03-28T12:44:53.723Z,349.25
2023-03-28T12:49:57.916Z,345.00
2023-03-28T12:55:02.086Z,467.33
2023-03-28T13:00:26.748Z,540.00
2023-03-28T13:05:57.258Z,469.33
2023-03-28T13:11:07.881Z,432.75
2023-03-28T13:16:15.901Z,392.00
2023-03-28T13:21:42.470Z,360.50
2023-03-28T13:26:54.672Z,336.50
2023-03-28T13:32:03.222Z,289.75
2023-03-28T13:37:22.666Z,282.75
2023-03-28T13:42:30.599Z,283.50
2023-03-28T13:47:38.317Z,104.25
2023-03-28T13:52:41.276Z,150.00
2023-03-28T13:57:44.199Z,160.50
2023-03-28T14:02:49.002Z,142.75
2023-03-28T14:07:52.582Z,150.75
2023-03-28T14:12:55.941Z,148.50
2023-03-28T14:18:00.182Z,145.25
2023-03-28T14:23:03.181Z,143.50
2023-03-28T14:28:09.527Z,133.50
2023-03-28T14:33:20.269Z,130.75
2023-03-28T14:38:29.145Z,142.50
2023-03-28T14:43:32.217Z,140.00
2023-03-28T14:48:36.813Z,137.50
2023-03-28T14:53:42.612Z,130.75
2023-03-28T14:58:45.466Z,119.25
2023-03-28T15:03:50.695Z,113.50
2023-03-28T15:08:55.897Z,119.00
2023-03-28T15:14:01.008Z,124.25
2023-03-28T15:19:07.027Z,118.75
2023-03-28T15:24:11.505Z,126.75
2023-03-28T15:29:16.392Z,118.00
2023-03-28T15:34:22.101Z,120.25
2023-03-28T15:39:25.826Z,117.50
2023-03-28T15:44:30.294Z,108.50
2023-03-28T15:49:37.036Z,111.75
2023-03-28T15:54:42.899Z,110.25
2023-03-28T15:59:48.388Z,105.25
2023-03-28T16:05:00.304Z,108.00
2023-03-28T16:10:03.568Z,106.75
2023-03-28T16:15:11.609Z,111.50
2023-03-28T16:20:25.247Z,111.75
2023-03-28T16:25:28.674Z,105.75
2023-03-28T16:30:33.485Z,102.50
2023-03-28T16:35:37.660Z,100.50
2023-03-28T16:40:40.714Z,99.50
2023-03-28T16:45:43.616Z,107.50
2023-03-28T16:50:55.481Z,103.00
2023-03-28T16:55:58.539Z,94.75
2023-03-28T17:01:05.006Z,96.25
2023-03-28T17:06:10.162Z,91.75
2023-03-28T17:11:13.516Z,86.00
2023-03-28T17:16:16.565Z,92.50
2023-03-28T17:21:20.860Z,85.00
2023-03-28T17:26:23.638Z,80.75
2023-03-28T17:31:26.638Z,80.00
2023-03-28T17:36:30.970Z,78.33
2023-03-28T17:41:33.860Z,77.67
2023-03-28T17:46:37.514Z,72.00
2023-03-28T17:51:41.750Z,73.00
2023-03-28T17:56:44.708Z,77.25
2023-03-28T18:01:47.924Z,72.33
2023-03-28T18:06:53.465Z,74.00
2023-03-28T18:11:56.490Z,75.67
2023-03-28T18:16:59.441Z,74.00
2023-03-28T18:22:03.648Z,72.00
2023-03-28T18:27:06.573Z,71.33
2023-03-28T18:32:09.366Z,68.33
2023-03-28T18:37:13.499Z,68.00
2023-03-28T18:42:16.389Z,63.67
2023-03-28T18:47:19.228Z,63.50
2023-03-28T18:52:23.441Z,66.00
2023-03-28T18:57:27.660Z,58.25
2023-03-28T19:02:30.672Z,63.25
2023-03-28T19:07:34.997Z,61.25
2023-03-28T19:12:37.787Z,53.00
2023-03-28T19:17:40.824Z,53.50
2023-03-28T19:22:45.035Z,49.25
2023-03-28T19:27:51.902Z,49.50
2023-03-28T19:32:54.781Z,53.50
2023-03-28T19:37:59.176Z,49.50
2023-03-28T19:43:02.014Z,45.50
2023-03-28T19:48:04.905Z,47.00
2023-03-28T19:53:09.185Z,44.75
2023-03-28T19:58:12.273Z,37.25
2023-03-28T20:03:15.106Z,46.00
2023-03-28T20:08:19.865Z,41.75
2023-03-28T20:13:23.051Z,38.20
2023-03-28T20:18:26.135Z,40.00
2023-03-28T20:23:31.917Z,39.75
2023-03-28T20:28:34.696Z,35.00
2023-03-28T20:33:38.331Z,31.00
2023-03-28T20:38:42.549Z,36.40
2023-03-28T20:43:47.754Z,31.60
2023-03-28T20:48:53.255Z,29.40
2023-03-28T20:53:58.594Z,37.00
2023-03-28T20:59:01.375Z,35.20
2023-03-28T21:04:04.451Z,29.80
2023-03-28T21:09:09.838Z,31.20
2023-03-28T21:14:13.438Z,34.60
2023-03-28T21:19:16.557Z,29.60
2023-03-28T21:24:20.991Z,30.40
2023-03-28T21:29:24.483Z,28.20
2023-03-28T21:34:33.487Z,28.80
2023-03-28T21:39:37.697Z,26.80
2023-03-28T21:44:40.501Z,29.20
2023-03-28T21:49:45.910Z,30.60
2023-03-28T21:54:50.040Z,24.20
2023-03-28T21:59:52.828Z,29.80
2023-03-28T22:04:55.669Z,31.80
2023-03-28T22:10:01.133Z,28.40
2023-03-28T22:15:04.525Z,27.80
2023-03-28T22:20:08.605Z,28.40
2023-03-28T22:25:13.566Z,26.00
2023-03-28T22:30:16.500Z,25.60
2023-03-28T22:35:19.324Z,23.20
2023-03-28T22:40:23.545Z,23.20
2023-03-28T22:45:26.988Z,26.40
2023-03-28T22:50:29.785Z,24.40
2023-03-28T22:55:33.906Z,27.80
2023-03-28T23:00:37.432Z,24.80
2023-03-28T23:05:40.212Z,24.40
2023-03-28T23:10:44.356Z,23.60
2023-03-28T23:15:47.114Z,25.60
2023-03-28T23:20:50.966Z,22.00
2023-03-28T23:25:55.165Z,23.40
2023-03-28T23:30:57.932Z,22.40
2023-03-28T23:36:00.970Z,20.80
2023-03-28T23:41:06.464Z,19.80
2023-03-28T23:46:09.361Z,21.40
2023-03-28T23:51:12.185Z,25.20
2023-03-28T23:56:16.458Z,21.60
